createdAt,value
2019-03-20T00:01:47.260Z,1.67
2019-03-20T00:06:15.395Z,1.57
2019-03-20T00:08:26.204Z,1.52
2019-03-20T00:10:36.993Z,1.52
2019-03-20T00:12:47.805Z,1.49
2019-03-20T00:14:58.596Z,1.48
2019-03-20T00:17:09.420Z,1.42
2019-03-20T00:19:20.237Z,1.41
2019-03-20T00:21:31.142Z,1.38
2019-03-20T00:23:41.950Z,1.29
2019-03-20T00:25:52.746Z,1.27
2019-03-20T00:28:03.573Z,1.29
2019-03-20T00:30:56.016Z,1.36
2019-03-20T00:33:06.982Z,1.52
2019-03-20T00:35:17.771Z,1.55
2019-03-20T00:37:28.672Z,1.53
2019-03-20T00:39:39.493Z,1.43
2019-03-20T00:41:50.292Z,1.33
2019-03-20T00:44:01.127Z,1.31
2019-03-20T00:46:11.913Z,1.32
2019-03-20T00:48:22.751Z,1.35
2019-03-20T00:50:33.583Z,1.36
2019-03-20T00:52:44.383Z,1.39
2019-03-20T00:54:55.210Z,1.33
2019-03-20T00:57:06.008Z,1.30
2019-03-20T00:59:16.863Z,1.27
2019-03-20T01:01:27.790Z,1.22
2019-03-20T01:03:38.570Z,1.18
2019-03-20T01:05:49.408Z,1.12
2019-03-20T01:08:00.249Z,1.07
2019-03-20T01:10:52.739Z,1.04
2019-03-20T01:13:45.171Z,1.01
2019-03-20T01:15:55.985Z,0.97
2019-03-20T01:20:39.165Z,1.10
2019-03-20T01:22:50.104Z,1.13
2019-03-20T01:25:00.969Z,1.12
2019-03-20T01:27:11.780Z,1.05
2019-03-20T01:29:22.604Z,1.05
2019-03-20T01:31:33.425Z,0.97
2019-03-20T01:33:44.243Z,0.93
2019-03-20T01:35:55.045Z,0.84
2019-03-20T01:38:47.516Z,0.85
2019-03-20T01:40:58.322Z,0.89
2019-03-20T01:43:09.164Z,0.99
2019-03-20T01:45:19.966Z,1.02
2019-03-20T01:47:30.797Z,1.08
2019-03-20T01:49:41.598Z,1.11
2019-03-20T01:51:52.462Z,1.08
2019-03-20T01:54:03.272Z,1.10
2019-03-20T01:56:14.062Z,1.17
2019-03-20T01:58:24.909Z,1.20
2019-03-20T02:00:36.011Z,1.25
2019-03-20T02:02:46.828Z,1.28
2019-03-20T02:04:57.641Z,1.19
2019-03-20T02:07:08.447Z,1.12
2019-03-20T02:09:19.357Z,1.10
2019-03-20T02:11:30.166Z,1.12
2019-03-20T02:13:41.004Z,1.25
2019-03-20T02:15:51.798Z,1.33
2019-03-20T02:18:02.724Z,1.28
2019-03-20T02:20:55.156Z,1.24
2019-03-20T02:23:05.992Z,1.18
2019-03-20T02:25:16.800Z,1.04
2019-03-20T02:27:27.649Z,0.91
2019-03-20T02:29:38.502Z,0.73
2019-03-20T02:31:49.309Z,0.61
2019-03-20T02:34:00.155Z,0.56
2019-03-20T02:36:10.953Z,0.55
2019-03-20T02:38:21.768Z,0.52
2019-03-20T02:40:32.577Z,0.48
2019-03-20T02:42:43.387Z,0.47
2019-03-20T02:44:54.227Z,0.42
2019-03-20T02:47:05.015Z,0.36
2019-03-20T02:49:15.821Z,0.31
2019-03-20T02:51:26.653Z,0.26
2019-03-20T02:53:37.470Z,0.26
2019-03-20T02:55:48.267Z,0.24
2019-03-20T02:57:59.072Z,0.27
2019-03-20T03:00:29.796Z,0.26
2019-03-20T03:02:40.635Z,0.27
2019-03-20T03:04:51.452Z,0.22
2019-03-20T03:07:02.359Z,0.21
2019-03-20T03:09:13.192Z,0.24
2019-03-20T03:11:23.991Z,0.20
2019-03-20T03:13:34.800Z,0.19
2019-03-20T03:15:45.644Z,0.20
2019-03-20T03:17:56.450Z,0.27
2019-03-20T03:20:48.929Z,0.33
2019-03-20T03:22:59.742Z,0.37
2019-03-20T03:25:52.297Z,0.31
2019-03-20T03:28:03.164Z,0.33
2019-03-20T03:30:55.647Z,0.32
2019-03-20T03:33:06.585Z,0.30
2019-03-20T03:35:19.436Z,0.29
2019-03-20T03:37:30.062Z,0.29
2019-03-20T03:39:40.874Z,0.35
2019-03-20T03:41:51.695Z,0.39
2019-03-20T03:44:02.628Z,0.41
2019-03-20T03:46:13.478Z,0.41
2019-03-20T03:48:24.287Z,0.44
2019-03-20T03:50:35.106Z,0.44
2019-03-20T03:52:45.921Z,0.36
2019-03-20T03:55:16.587Z,0.26
2019-03-20T03:57:27.470Z,0.26
2019-03-20T03:59:38.285Z,0.20
2019-03-20T04:01:49.103Z,0.24
2019-03-20T04:03:59.891Z,0.22
2019-03-20T04:06:10.710Z,0.13
2019-03-20T04:08:21.493Z,0.15
2019-03-20T04:10:32.333Z,0.11
2019-03-20T04:12:43.148Z,0.03
2019-03-20T04:14:53.968Z,0.04
2019-03-20T04:17:46.431Z,0.05
2019-03-20T04:19:57.215Z,0.03
2019-03-20T04:22:08.016Z,0.05
2019-03-20T04:24:18.825Z,0.04
2019-03-20T04:26:49.517Z,0.03
2019-03-20T04:29:00.329Z,0.03
2019-03-20T04:31:11.136Z,0.05
2019-03-20T04:33:22.009Z,0.03
2019-03-20T04:35:32.815Z,0.00
2019-03-20T04:37:43.628Z,0.00
2019-03-20T04:39:54.457Z,-0.06
2019-03-20T04:42:05.252Z,-0.13
2019-03-20T04:44:16.084Z,-0.18
2019-03-20T04:46:26.901Z,-0.23
2019-03-20T04:48:37.785Z,-0.14
2019-03-20T04:50:48.561Z,-0.12
2019-03-20T04:52:59.479Z,-0.07
2019-03-20T04:55:51.915Z,-0.10
2019-03-20T04:58:02.848Z,-0.18
2019-03-20T05:00:33.503Z,-0.21
2019-03-20T05:02:44.318Z,-0.29
2019-03-20T05:04:55.142Z,-0.37
2019-03-20T05:07:05.925Z,-0.39
2019-03-20T05:09:16.769Z,-0.39
2019-03-20T05:11:27.556Z,-0.39
2019-03-20T05:13:38.384Z,-0.38
2019-03-20T05:15:49.331Z,-0.35
2019-03-20T05:18:00.161Z,-0.32
2019-03-20T05:20:30.816Z,-0.23
2019-03-20T05:22:41.629Z,-0.21
2019-03-20T05:24:52.463Z,-0.28
2019-03-20T05:27:03.267Z,-0.31
2019-03-20T05:29:14.099Z,-0.35
2019-03-20T05:31:24.915Z,-0.39
2019-03-20T05:33:35.732Z,-0.41
2019-03-20T05:35:46.554Z,-0.40
2019-03-20T05:38:17.225Z,-0.27
2019-03-20T05:40:28.054Z,-0.27
2019-03-20T05:42:38.871Z,-0.18
2019-03-20T05:44:49.663Z,-0.13
2019-03-20T05:47:00.485Z,-0.07
2019-03-20T05:49:11.283Z,0.01
2019-03-20T05:51:22.107Z,0.15
2019-03-20T05:53:32.940Z,0.36
2019-03-20T05:55:43.823Z,0.63
2019-03-20T05:57:54.722Z,0.95
2019-03-20T06:02:44.288Z,1.56
2019-03-20T06:04:55.105Z,1.89
2019-03-20T06:07:05.891Z,2.18
2019-03-20T06:09:16.708Z,2.26
2019-03-20T06:11:27.546Z,2.17
2019-03-20T06:13:38.357Z,1.85
2019-03-20T06:15:49.161Z,1.58
2019-03-20T06:17:59.993Z,1.48
2019-03-20T06:20:52.466Z,1.37
2019-03-20T06:23:03.265Z,1.30
2019-03-20T06:25:55.734Z,1.29
2019-03-20T06:28:06.554Z,1.36
2019-03-20T06:30:59.015Z,1.52
2019-03-20T06:33:09.852Z,1.47
2019-03-20T06:35:20.666Z,1.55
2019-03-20T06:37:32.788Z,1.61
2019-03-20T06:39:44.222Z,1.67
2019-03-20T06:41:55.029Z,1.74
2019-03-20T06:44:05.838Z,1.84
2019-03-20T06:46:16.698Z,1.94
2019-03-20T06:48:27.511Z,2.07
2019-03-20T06:50:38.303Z,2.43
2019-03-20T06:52:49.169Z,3.20
2019-03-20T06:55:01.159Z,4.18
2019-03-20T06:57:12.695Z,5.14
2019-03-20T07:00:05.531Z,5.99
2019-03-20T07:05:34.805Z,7.49
2019-03-20T07:07:45.837Z,7.98
2019-03-20T07:10:38.272Z,8.38
2019-03-20T07:12:49.114Z,8.68
2019-03-20T07:14:59.920Z,9.23
2019-03-20T07:17:10.839Z,9.60
2019-03-20T07:19:21.661Z,9.83
2019-03-20T07:21:32.471Z,10.15
2019-03-20T07:23:43.302Z,10.64
2019-03-20T07:25:54.121Z,10.84
2019-03-20T07:28:04.917Z,10.90
2019-03-20T07:30:15.751Z,10.93
2019-03-20T07:32:26.567Z,11.09
2019-03-20T07:34:37.425Z,11.36
2019-03-20T07:36:48.246Z,11.60
2019-03-20T07:38:59.078Z,11.79
2019-03-20T07:41:09.875Z,12.02
2019-03-20T07:43:20.673Z,12.18
2019-03-20T07:45:31.498Z,12.04
2019-03-20T07:47:42.300Z,12.36
2019-03-20T07:49:53.108Z,12.22
2019-03-20T07:52:04.061Z,12.28
2019-03-20T07:54:14.843Z,12.47
2019-03-20T07:56:25.659Z,12.54
2019-03-20T07:58:36.480Z,12.60
2019-03-20T08:00:47.305Z,12.60
2019-03-20T08:02:58.123Z,12.90
2019-03-20T08:05:50.603Z,13.15
2019-03-20T08:08:07.229Z,13.08
2019-03-20T08:10:55.764Z,12.93
2019-03-20T08:13:06.577Z,12.65
2019-03-20T08:15:17.391Z,12.66
2019-03-20T08:17:28.206Z,12.54
2019-03-20T08:19:39.054Z,12.66
2019-03-20T08:21:49.986Z,13.00
2019-03-20T08:24:00.896Z,13.02
2019-03-20T08:26:11.752Z,12.95
2019-03-20T08:28:22.558Z,12.95
2019-03-20T08:30:33.378Z,13.18
2019-03-20T08:32:44.300Z,13.25
2019-03-20T08:34:55.210Z,13.32
2019-03-20T08:37:06.062Z,13.57
2019-03-20T08:39:16.940Z,13.65
2019-03-20T08:41:27.756Z,13.86
2019-03-20T08:43:38.559Z,13.88
2019-03-20T08:45:49.364Z,13.95
2019-03-20T08:48:00.206Z,13.67
2019-03-20T08:50:52.650Z,13.70
2019-03-20T08:53:03.560Z,13.58
2019-03-20T08:55:56.002Z,13.64
2019-03-20T08:58:06.835Z,13.76
2019-03-20T09:00:59.299Z,13.53
2019-03-20T09:03:10.140Z,13.69
2019-03-20T09:05:21.042Z,13.76
2019-03-20T09:07:31.830Z,13.81
2019-03-20T09:09:42.649Z,13.74
2019-03-20T09:11:53.453Z,13.66
2019-03-20T09:14:04.283Z,13.74
2019-03-20T09:16:15.094Z,13.54
2019-03-20T09:18:25.927Z,13.67
2019-03-20T09:20:36.733Z,13.57
2019-03-20T09:22:47.556Z,13.62
2019-03-20T09:24:58.365Z,13.37
2019-03-20T09:27:09.172Z,13.58
2019-03-20T09:29:19.999Z,13.76
2019-03-20T09:31:30.830Z,13.83
2019-03-20T09:33:41.750Z,13.97
2019-03-20T09:35:52.622Z,14.07
2019-03-20T09:38:03.434Z,14.18
2019-03-20T09:40:34.116Z,14.46
2019-03-20T09:42:44.920Z,14.53
2019-03-20T09:45:16.233Z,14.28
2019-03-20T09:47:27.034Z,14.18
2019-03-20T09:49:37.867Z,14.33
2019-03-20T09:51:48.654Z,13.99
2019-03-20T09:53:59.492Z,13.81
2019-03-20T09:56:10.364Z,13.91
2019-03-20T09:58:21.271Z,13.86
2019-03-20T10:00:32.093Z,14.00
2019-03-20T10:03:24.519Z,14.11
2019-03-20T10:05:35.337Z,13.88
2019-03-20T10:07:46.355Z,13.85
2019-03-20T10:09:57.187Z,13.87
2019-03-20T10:12:08.045Z,13.70
2019-03-20T10:14:18.846Z,13.93
2019-03-20T10:16:29.640Z,13.98
2019-03-20T10:18:40.453Z,13.69
2019-03-20T10:20:51.294Z,13.38
2019-03-20T10:23:02.201Z,13.46
2019-03-20T10:25:54.647Z,13.60
2019-03-20T10:28:05.460Z,13.85
2019-03-20T10:30:36.145Z,14.00
2019-03-20T10:32:47.073Z,14.01
2019-03-20T10:34:57.927Z,13.77
2019-03-20T10:37:08.854Z,13.76
2019-03-20T10:39:19.629Z,13.69
2019-03-20T10:41:30.455Z,13.64
2019-03-20T10:43:41.258Z,13.71
2019-03-20T10:45:52.137Z,13.88
2019-03-20T10:48:03.097Z,13.73
2019-03-20T10:50:33.785Z,13.74
2019-03-20T10:52:44.621Z,13.86
2019-03-20T10:54:55.620Z,13.70
2019-03-20T10:57:06.429Z,13.59
2019-03-20T10:59:17.261Z,13.61
2019-03-20T11:01:28.099Z,13.66
2019-03-20T11:03:38.929Z,13.78
2019-03-20T11:05:49.782Z,13.84
2019-03-20T11:08:00.593Z,13.71
2019-03-20T11:10:31.266Z,13.76
2019-03-20T11:12:42.110Z,13.88
2019-03-20T11:14:52.889Z,14.05
2019-03-20T11:17:11.275Z,14.09
2019-03-20T11:22:18.942Z,14.25
2019-03-20T11:24:27.134Z,14.25
2019-03-20T11:26:37.942Z,14.14
2019-03-20T11:28:48.788Z,14.25
2019-03-20T11:30:59.613Z,14.24
2019-03-20T11:33:10.449Z,14.27
2019-03-20T11:35:21.365Z,14.16
2019-03-20T11:37:32.203Z,13.90
2019-03-20T11:39:43.123Z,13.90
2019-03-20T11:41:53.964Z,13.92
2019-03-20T11:44:04.872Z,13.73
2019-03-20T11:46:15.685Z,13.83
2019-03-20T11:48:26.508Z,13.85
2019-03-20T11:51:18.949Z,13.83
2019-03-20T11:53:29.770Z,13.81
2019-03-20T11:55:40.568Z,13.80
2019-03-20T11:57:51.376Z,13.82
2019-03-20T12:00:43.858Z,13.81
2019-03-20T12:02:54.704Z,13.81
2019-03-20T12:05:47.185Z,13.88
2019-03-20T12:07:58.120Z,13.88
2019-03-20T12:10:50.572Z,13.85
2019-03-20T12:13:01.411Z,13.92
2019-03-20T12:15:53.813Z,14.00
2019-03-20T12:18:04.799Z,13.89
2019-03-20T12:20:57.288Z,13.81
2019-03-20T12:23:08.207Z,13.80
2019-03-20T12:25:39.104Z,13.62
2019-03-20T12:27:49.901Z,13.53
2019-03-20T12:30:00.782Z,13.55
2019-03-20T12:32:11.644Z,13.50
2019-03-20T12:34:22.513Z,13.58
2019-03-20T12:36:33.341Z,13.61
2019-03-20T12:38:44.172Z,13.59
2019-03-20T12:40:54.966Z,13.56
2019-03-20T12:43:05.888Z,13.60
2019-03-20T12:45:58.363Z,13.67
2019-03-20T12:48:50.876Z,13.70
2019-03-20T12:51:01.693Z,13.49
2019-03-20T12:53:33.438Z,13.50
2019-03-20T12:55:44.266Z,13.57
2019-03-20T12:57:55.087Z,13.54
2019-03-20T13:00:27.455Z,13.37
2019-03-20T13:02:38.891Z,13.26
2019-03-20T13:04:49.688Z,13.23
2019-03-20T13:07:00.532Z,13.16
2019-03-20T13:09:11.341Z,13.12
2019-03-20T13:11:22.216Z,13.17
2019-03-20T13:13:33.025Z,13.19
2019-03-20T13:15:43.834Z,13.33
2019-03-20T13:18:36.336Z,13.34
2019-03-20T13:20:47.186Z,13.32
2019-03-20T13:23:39.618Z,13.27
2019-03-20T13:25:50.437Z,13.13
2019-03-20T13:28:01.237Z,13.10
2019-03-20T13:30:53.718Z,13.11
2019-03-20T13:33:04.528Z,13.10
2019-03-20T13:35:15.381Z,13.12
2019-03-20T13:37:26.213Z,13.08
2019-03-20T13:39:37.012Z,13.02
2019-03-20T13:41:47.845Z,13.05
2019-03-20T13:43:58.647Z,13.11
2019-03-20T13:46:09.481Z,13.05
2019-03-20T13:48:20.285Z,12.98
2019-03-20T13:50:31.102Z,13.03
2019-03-20T13:52:42.044Z,13.00
2019-03-20T13:54:52.841Z,13.02
2019-03-20T13:57:03.882Z,12.98
2019-03-20T13:59:14.690Z,12.90
2019-03-20T14:01:25.500Z,12.89
2019-03-20T14:03:36.325Z,12.89
2019-03-20T14:05:47.158Z,12.88
2019-03-20T14:07:58.014Z,12.78
2019-03-20T14:10:50.912Z,12.72
2019-03-20T14:13:01.794Z,12.78
2019-03-20T14:15:54.241Z,12.80
2019-03-20T14:18:05.079Z,12.88
2019-03-20T14:20:57.524Z,12.81
2019-03-20T14:23:08.380Z,12.81
2019-03-20T14:26:00.831Z,12.82
2019-03-20T14:28:11.655Z,12.76
2019-03-20T14:30:42.329Z,12.80
2019-03-20T14:32:53.241Z,12.81
2019-03-20T14:35:45.746Z,12.87
2019-03-20T14:37:56.567Z,12.87
2019-03-20T14:40:49.010Z,12.85
2019-03-20T14:42:59.985Z,12.89
2019-03-20T14:45:52.513Z,12.83
2019-03-20T14:48:03.310Z,12.79
2019-03-20T14:50:55.768Z,12.75
2019-03-20T14:53:06.686Z,12.73
2019-03-20T14:55:17.496Z,12.78
2019-03-20T14:57:28.334Z,12.76
2019-03-20T14:59:39.145Z,12.72
2019-03-20T15:01:49.949Z,12.72
2019-03-20T15:04:00.877Z,12.64
2019-03-20T15:06:11.692Z,12.62
2019-03-20T15:08:22.610Z,12.64
2019-03-20T15:10:33.464Z,12.68
2019-03-20T15:12:44.467Z,12.68
2019-03-20T15:14:55.291Z,12.65
2019-03-20T15:17:06.111Z,12.70
2019-03-20T15:19:16.914Z,12.73
2019-03-20T15:24:06.917Z,12.70
2019-03-20T15:26:17.728Z,12.61
2019-03-20T15:28:28.539Z,12.64
2019-03-20T15:30:39.482Z,12.59
2019-03-20T15:32:50.298Z,12.51
2019-03-20T15:35:01.245Z,12.51
2019-03-20T15:37:12.061Z,12.58
2019-03-20T15:39:22.891Z,12.54
2019-03-20T15:41:33.856Z,12.50
2019-03-20T15:43:44.669Z,12.53
2019-03-20T15:45:55.498Z,12.53
2019-03-20T15:48:06.302Z,12.46
2019-03-20T15:50:37.013Z,12.44
2019-03-20T15:52:47.936Z,12.46
2019-03-20T15:54:58.725Z,12.45
2019-03-20T15:57:09.543Z,12.52
2019-03-20T15:59:20.472Z,12.57
2019-03-20T16:01:31.304Z,12.58
2019-03-20T16:04:23.776Z,12.54
2019-03-20T16:06:34.622Z,12.54
2019-03-20T16:08:45.418Z,12.54
2019-03-20T16:11:05.959Z,12.46
2019-03-20T16:13:08.953Z,12.36
2019-03-20T16:16:01.422Z,12.38
2019-03-20T16:18:12.311Z,12.43
2019-03-20T16:20:23.083Z,12.40
2019-03-20T16:22:33.920Z,12.32
2019-03-20T16:24:44.722Z,12.31
2019-03-20T16:26:55.554Z,12.28
2019-03-20T16:29:06.504Z,12.29
2019-03-20T16:31:17.325Z,12.21
2019-03-20T16:33:28.179Z,12.16
2019-03-20T16:35:39.006Z,12.11
2019-03-20T16:37:49.839Z,12.07
2019-03-20T16:40:00.657Z,12.06
2019-03-20T16:42:11.450Z,11.96
2019-03-20T16:44:22.295Z,11.92
2019-03-20T16:46:33.119Z,11.90
2019-03-20T16:49:25.655Z,11.90
2019-03-20T16:51:36.459Z,11.95
2019-03-20T16:53:47.269Z,11.89
2019-03-20T16:55:58.095Z,11.85
2019-03-20T16:58:09.009Z,11.80
2019-03-20T17:01:01.483Z,11.80
2019-03-20T17:03:12.293Z,11.73
2019-03-20T17:06:04.982Z,11.70
2019-03-20T17:08:15.795Z,11.62
2019-03-20T17:10:46.476Z,11.57
2019-03-20T17:13:38.925Z,11.45
2019-03-20T17:15:49.761Z,11.43
2019-03-20T17:18:00.588Z,11.36
2019-03-20T17:20:53.094Z,11.29
2019-03-20T17:23:45.552Z,11.37
2019-03-20T17:25:56.389Z,11.39
2019-03-20T17:28:07.431Z,11.30
2019-03-20T17:30:58.012Z,11.21
2019-03-20T17:33:08.824Z,11.12
2019-03-20T17:35:19.767Z,11.09
2019-03-20T17:37:50.493Z,10.99
2019-03-20T17:40:01.303Z,10.99
2019-03-20T17:44:28.951Z,10.91
2019-03-20T17:46:39.855Z,10.88
2019-03-20T17:48:50.657Z,10.84
2019-03-20T17:51:01.608Z,10.77
2019-03-20T17:53:12.752Z,10.77
2019-03-20T17:55:23.939Z,10.76
2019-03-20T17:57:34.770Z,10.72
2019-03-20T17:59:45.629Z,10.66
2019-03-20T18:01:56.467Z,10.57
2019-03-20T18:04:07.281Z,10.49
2019-03-20T18:06:18.082Z,10.39
2019-03-20T18:08:28.902Z,10.23
2019-03-20T18:10:39.740Z,10.03
2019-03-20T18:12:50.623Z,9.93
2019-03-20T18:15:43.086Z,9.87
2019-03-20T18:17:53.889Z,9.80
2019-03-20T18:20:24.564Z,9.76
2019-03-20T18:22:35.378Z,9.74
2019-03-20T18:24:46.168Z,9.68
2019-03-20T18:26:57.027Z,9.66
2019-03-20T18:29:07.828Z,9.64
2019-03-20T18:31:18.646Z,9.57
2019-03-20T18:33:29.505Z,9.51
2019-03-20T18:35:40.355Z,9.39
2019-03-20T18:37:51.322Z,9.29
2019-03-20T18:40:43.783Z,9.16
2019-03-20T18:45:55.294Z,8.76
2019-03-20T18:48:06.125Z,8.69
2019-03-20T18:50:58.564Z,8.59
2019-03-20T18:53:09.445Z,8.57
2019-03-20T18:55:20.352Z,8.51
2019-03-20T18:57:31.180Z,8.43
2019-03-20T18:59:42.024Z,8.30
2019-03-20T19:01:52.911Z,8.17
2019-03-20T19:04:03.865Z,8.05
2019-03-20T19:06:34.578Z,7.84
2019-03-20T19:08:45.456Z,7.84
2019-03-20T19:10:56.325Z,7.73
2019-03-20T19:13:07.231Z,7.61
2019-03-20T19:15:18.140Z,7.51
2019-03-20T19:17:29.001Z,7.40
2019-03-20T19:19:39.838Z,7.38
2019-03-20T19:21:50.681Z,7.35
2019-03-20T19:24:01.527Z,7.35
2019-03-20T19:26:12.345Z,7.28
2019-03-20T19:28:23.164Z,7.16
2019-03-20T19:30:34.105Z,7.11
2019-03-20T19:32:45.052Z,7.02
2019-03-20T19:34:55.960Z,6.96
2019-03-20T19:37:06.774Z,6.91
2019-03-20T19:39:17.611Z,6.89
2019-03-20T19:41:28.429Z,6.86
2019-03-20T19:43:39.305Z,6.71
2019-03-20T19:45:50.224Z,6.58
2019-03-20T19:48:01.050Z,6.43
2019-03-20T19:50:31.756Z,6.37
2019-03-20T19:52:42.687Z,6.31
2019-03-20T19:54:53.553Z,6.24
2019-03-20T19:57:04.355Z,6.19
2019-03-20T19:59:35.718Z,6.19
2019-03-20T20:01:58.329Z,6.16
2019-03-20T20:03:59.300Z,6.08
2019-03-20T20:06:11.342Z,5.94
2019-03-20T20:08:22.875Z,5.88
2019-03-20T20:10:36.516Z,5.91
2019-03-20T20:12:47.443Z,5.93
2019-03-20T20:14:58.244Z,5.91
2019-03-20T20:17:09.072Z,5.90
2019-03-20T20:19:19.918Z,5.88
2019-03-20T20:21:30.796Z,5.87
2019-03-20T20:23:41.605Z,5.76
2019-03-20T20:25:52.601Z,5.73
2019-03-20T20:28:03.592Z,5.71
2019-03-20T20:30:56.059Z,5.64
2019-03-20T20:33:06.853Z,5.61
2019-03-20T20:35:17.694Z,5.55
2019-03-20T20:37:28.581Z,5.55
2019-03-20T20:39:39.388Z,5.52
2019-03-20T20:41:50.216Z,5.51
2019-03-20T20:44:01.024Z,5.51
2019-03-20T20:46:11.868Z,5.43
2019-03-20T20:48:22.672Z,5.33
2019-03-20T20:50:33.474Z,5.32
2019-03-20T20:53:25.934Z,5.34
2019-03-20T20:55:36.736Z,5.36
2019-03-20T20:58:07.447Z,5.25
2019-03-20T21:00:38.131Z,5.19
2019-03-20T21:05:07.745Z,5.03
2019-03-20T21:07:18.575Z,5.03
2019-03-20T21:09:29.383Z,5.03
2019-03-20T21:11:40.233Z,5.07
2019-03-20T21:13:51.058Z,5.05
2019-03-20T21:16:02.115Z,5.07
2019-03-20T21:18:54.603Z,5.00
2019-03-20T21:21:05.521Z,4.95
2019-03-20T21:23:57.972Z,5.02
2019-03-20T21:26:48.508Z,5.09
2019-03-20T21:29:39.066Z,5.13
2019-03-20T21:32:31.566Z,5.15
2019-03-20T21:35:24.047Z,5.19
2019-03-20T21:38:14.593Z,5.15
2019-03-20T21:40:25.414Z,5.08
2019-03-20T21:43:15.960Z,5.01
2019-03-20T21:46:06.523Z,4.97
2019-03-20T21:51:29.425Z,4.95
2019-03-20T21:54:19.992Z,4.91
2019-03-20T21:57:10.545Z,4.84
2019-03-20T22:00:03.014Z,4.80
2019-03-20T22:02:53.573Z,4.71
2019-03-20T22:05:44.198Z,4.66
2019-03-20T22:07:55.011Z,4.53
2019-03-20T22:10:47.481Z,4.46
2019-03-20T22:13:39.928Z,4.39
2019-03-20T22:16:30.501Z,4.28
2019-03-20T22:19:22.941Z,4.20
2019-03-20T22:22:15.411Z,4.18
2019-03-20T22:25:06.045Z,4.13
2019-03-20T22:30:15.744Z,3.81
2019-03-20T22:33:08.188Z,3.78
2019-03-20T22:36:00.701Z,3.70
2019-03-20T22:38:53.316Z,3.49
2019-03-20T22:41:43.890Z,3.38
2019-03-20T22:44:36.332Z,3.38
2019-03-20T22:47:28.785Z,3.38
2019-03-20T22:50:21.215Z,3.37
2019-03-20T22:53:11.783Z,3.33
2019-03-20T22:56:04.319Z,3.23
2019-03-20T22:58:56.719Z,3.19
2019-03-20T23:01:49.178Z,3.19
2019-03-20T23:04:41.619Z,3.19
2019-03-20T23:06:52.445Z,3.19
2019-03-20T23:09:44.889Z,3.23
2019-03-20T23:12:37.344Z,3.18
2019-03-20T23:14:48.146Z,3.02
2019-03-20T23:16:58.942Z,2.81
2019-03-20T23:19:09.786Z,2.73
2019-03-20T23:21:20.596Z,2.69
2019-03-20T23:24:13.059Z,2.74
2019-03-20T23:26:23.877Z,2.73
2019-03-20T23:28:34.723Z,2.63
2019-03-20T23:30:45.531Z,2.63
2019-03-20T23:32:56.373Z,2.63
2019-03-20T23:35:07.297Z,2.69
2019-03-20T23:37:18.096Z,2.69
2019-03-20T23:39:28.913Z,2.66
2019-03-20T23:41:39.719Z,2.72
2019-03-20T23:43:53.323Z,2.71
2019-03-20T23:46:25.017Z,2.73
2019-03-20T23:49:17.493Z,2.76
2019-03-20T23:52:09.933Z,2.79
2019-03-20T23:55:02.396Z,2.83
2019-03-20T23:57:54.836Z,2.85
